sensor_id;sensor_type;location;lat;lon;timestamp;pressure;altitude;pressure_sealevel;temperature;humidity
13080;BME280;6606;49.154;9.280;2023-12-28T00:01:38;99710.69;;;0.91;100.00
13080;BME280;6606;49.154;9.280;2023-12-28T00:04:20;99721.94;;;0.95;100.00
13080;BME280;6606;49.154;9.280;2023-12-28T00:07:04;99723.75;;;0.89;100.00
13080;BME280;6606;49.154;9.280;2023-12-28T00:09:49;99737.72;;;0.88;100.00
13080;BME280;6606;49.154;9.280;2023-12-28T00:12:31;99755.28;;;0.79;100.00
13080;BME280;6606;49.154;9.280;2023-12-28T00:15:13;99767.47;;;0.81;100.00
13080;BME280;6606;49.154;9.280;2023-12-28T00:17:55;99760.63;;;0.74;100.00
13080;BME280;6606;49.154;9.280;2023-12-28T00:20:37;99753.59;;;0.78;100.00
13080;BME280;6606;49.154;9.280;2023-12-28T00:23:20;99749.31;;;0.72;100.00
13080;BME280;6606;49.154;9.280;2023-12-28T00:26:02;99746.66;;;0.75;100.00
13080;BME280;6606;49.154;9.280;2023-12-28T00:28:44;99750.22;;;0.68;100.00
13080;BME280;6606;49.154;9.280;2023-12-28T00:31:26;99740.72;;;0.64;100.00
13080;BME280;6606;49.154;9.280;2023-12-28T00:34:07;99740.75;;;0.61;100.00
13080;BME280;6606;49.154;9.280;2023-12-28T00:36:49;99745.19;;;0.56;100.00
13080;BME280;6606;49.154;9.280;2023-12-28T00:39:32;99747.94;;;0.45;100.00
13080;BME280;6606;49.154;9.280;2023-12-28T00:42:15;99747.94;;;0.43;100.00
13080;BME280;6606;49.154;9.280;2023-12-28T00:44:56;99754.03;;;0.45;100.00
13080;BME280;6606;49.154;9.280;2023-12-28T00:47:39;99759.25;;;0.45;100.00
13080;BME280;6606;49.154;9.280;2023-12-28T00:50:23;99751.41;;;0.45;100.00
13080;BME280;6606;49.154;9.280;2023-12-28T00:53:07;99747.00;;;0.51;100.00
13080;BME280;6606;49.154;9.280;2023-12-28T00:55:50;99737.41;;;0.51;100.00
13080;BME280;6606;49.154;9.280;2023-12-28T00:58:32;99748.81;;;0.45;100.00
13080;BME280;6606;49.154;9.280;2023-12-28T01:01:14;99749.66;;;0.48;100.00
13080;BME280;6606;49.154;9.280;2023-12-28T01:03:56;99746.16;;;0.49;100.00
13080;BME280;6606;49.154;9.280;2023-12-28T01:06:37;99743.78;;;0.30;100.00
13080;BME280;6606;49.154;9.280;2023-12-28T01:09:19;99749.81;;;0.35;100.00
13080;BME280;6606;49.154;9.280;2023-12-28T01:12:02;99764.59;;;0.36;100.00
13080;BME280;6606;49.154;9.280;2023-12-28T01:14:45;99770.78;;;0.28;100.00
13080;BME280;6606;49.154;9.280;2023-12-28T01:17:29;99766.56;;;0.19;100.00
13080;BME280;6606;49.154;9.280;2023-12-28T01:20:11;99763.06;;;0.20;100.00
13080;BME280;6606;49.154;9.280;2023-12-28T01:22:52;99760.47;;;0.18;100.00
13080;BME280;6606;49.154;9.280;2023-12-28T01:25:34;99758.72;;;0.17;100.00
13080;BME280;6606;49.154;9.280;2023-12-28T01:28:18;99764.84;;;0.15;100.00
13080;BME280;6606;49.154;9.280;2023-12-28T01:31:00;99757.81;;;0.20;100.00
13080;BME280;6606;49.154;9.280;2023-12-28T01:33:42;99760.31;;;0.31;100.00
13080;BME280;6606;49.154;9.280;2023-12-28T01:36:23;99762.97;;;0.26;100.00
13080;BME280;6606;49.154;9.280;2023-12-28T01:39:07;99775.13;;;0.30;100.00
13080;BME280;6606;49.154;9.280;2023-12-28T01:41:51;99784.72;;;0.30;100.00
13080;BME280;6606;49.154;9.280;2023-12-28T01:44:34;99786.47;;;0.28;100.00
13080;BME280;6606;49.154;9.280;2023-12-28T01:47:16;99782.09;;;0.28;100.00
13080;BME280;6606;49.154;9.280;2023-12-28T01:49:58;99787.31;;;0.28;100.00
13080;BME280;6606;49.154;9.280;2023-12-28T01:52:41;99777.78;;;0.26;100.00
13080;BME280;6606;49.154;9.280;2023-12-28T01:55:24;99776.88;;;0.28;100.00
13080;BME280;6606;49.154;9.280;2023-12-28T01:58:06;99789.09;;;0.26;100.00
13080;BME280;6606;49.154;9.280;2023-12-28T02:00:50;99792.56;;;0.28;100.00
13080;BME280;6606;49.154;9.280;2023-12-28T02:03:32;99791.66;;;0.31;100.00
13080;BME280;6606;49.154;9.280;2023-12-28T02:06:14;99793.44;;;0.27;100.00
13080;BME280;6606;49.154;9.280;2023-12-28T02:08:57;99792.56;;;0.28;100.00
13080;BME280;6606;49.154;9.280;2023-12-28T02:11:39;99794.44;;;0.17;100.00
13080;BME280;6606;49.154;9.280;2023-12-28T02:14:21;99790.91;;;0.21;100.00
13080;BME280;6606;49.154;9.280;2023-12-28T02:17:10;99799.47;;;0.31;100.00
13080;BME280;6606;49.154;9.280;2023-12-28T02:19:55;99792.59;;;0.25;100.00
13080;BME280;6606;49.154;9.280;2023-12-28T02:22:37;99801.38;;;0.21;100.00
13080;BME280;6606;49.154;9.280;2023-12-28T02:25:22;99793.50;;;0.22;100.00
13080;BME280;6606;49.154;9.280;2023-12-28T02:28:04;99796.09;;;0.24;100.00
13080;BME280;6606;49.154;9.280;2023-12-28T02:30:46;99799.53;;;0.29;100.00
13080;BME280;6606;49.154;9.280;2023-12-28T02:33:34;99788.19;;;0.29;100.00
13080;BME280;6606;49.154;9.280;2023-12-28T02:36:23;99789.81;;;0.39;100.00
13080;BME280;6606;49.154;9.280;2023-12-28T02:39:06;99790.63;;;0.45;100.00
13080;BME280;6606;49.154;9.280;2023-12-28T02:41:49;99787.97;;;0.49;100.00
13080;BME280;6606;49.154;9.280;2023-12-28T02:44:31;99786.19;;;0.49;100.00
13080;BME280;6606;49.154;9.280;2023-12-28T02:47:13;99779.16;;;0.54;100.00
13080;BME280;6606;49.154;9.280;2023-12-28T02:49:54;99771.28;;;0.57;100.00
13080;BME280;6606;49.154;9.280;2023-12-28T02:52:39;99778.97;;;0.68;100.00
13080;BME280;6606;49.154;9.280;2023-12-28T02:55:21;99777.16;;;0.75;100.00
13080;BME280;6606;49.154;9.280;2023-12-28T02:58:04;99778.00;;;0.77;100.00
13080;BME280;6606;49.154;9.280;2023-12-28T03:00:46;99784.97;;;0.76;100.00
13080;BME280;6606;49.154;9.280;2023-12-28T03:03:30;99788.41;;;0.78;100.00
13080;BME280;6606;49.154;9.280;2023-12-28T03:06:12;99791.88;;;0.80;100.00
13080;BME280;6606;49.154;9.280;2023-12-28T03:08:53;99795.22;;;0.92;100.00
13080;BME280;6606;49.154;9.280;2023-12-28T03:11:35;99794.28;;;0.96;100.00
13080;BME280;6606;49.154;9.280;2023-12-28T03:14:18;99794.25;;;0.99;100.00
13080;BME280;6606;49.154;9.280;2023-12-28T03:17:01;99788.91;;;1.05;100.00
13080;BME280;6606;49.154;9.280;2023-12-28T03:19:43;99787.09;;;1.10;100.00
13080;BME280;6606;49.154;9.280;2023-12-28T03:22:25;99792.28;;;1.13;100.00
13080;BME280;6606;49.154;9.280;2023-12-28T03:25:07;99795.03;;;1.04;100.00
13080;BME280;6606;49.154;9.280;2023-12-28T03:27:49;99810.72;;;1.04;100.00
13080;BME280;6606;49.154;9.280;2023-12-28T03:30:32;99805.59;;;0.98;100.00
13080;BME280;6606;49.154;9.280;2023-12-28T03:33:14;99801.91;;;1.11;100.00
13080;BME280;6606;49.154;9.280;2023-12-28T03:35:55;99802.63;;;1.21;100.00
13080;BME280;6606;49.154;9.280;2023-12-28T03:38:38;99799.84;;;1.31;100.00
13080;BME280;6606;49.154;9.280;2023-12-28T03:41:20;99792.94;;;1.27;100.00
13080;BME280;6606;49.154;9.280;2023-12-28T03:44:03;99798.13;;;1.30;100.00
13080;BME280;6606;49.154;9.280;2023-12-28T03:46:47;99784.13;;;1.31;100.00
13080;BME280;6606;49.154;9.280;2023-12-28T03:49:28;99769.91;;;1.48;100.00
13080;BME280;6606;49.154;9.280;2023-12-28T03:52:10;99769.69;;;1.60;100.00
13080;BME280;6606;49.154;9.280;2023-12-28T03:54:52;99767.16;;;1.57;100.00
13080;BME280;6606;49.154;9.280;2023-12-28T03:57:33;99768.13;;;1.51;100.00
13080;BME280;6606;49.154;9.280;2023-12-28T04:00:15;99755.81;;;1.56;100.00
13080;BME280;6606;49.154;9.280;2023-12-28T04:02:58;99769.66;;;1.63;100.00
13080;BME280;6606;49.154;9.280;2023-12-28T04:05:40;99756.47;;;1.68;100.00
13080;BME280;6606;49.154;9.280;2023-12-28T04:08:22;99765.97;;;1.73;100.00
13080;BME280;6606;49.154;9.280;2023-12-28T04:11:04;99763.63;;;1.60;100.00
13080;BME280;6606;49.154;9.280;2023-12-28T04:13:45;99757.25;;;1.74;100.00
13080;BME280;6606;49.154;9.280;2023-12-28T04:16:27;99762.38;;;1.81;100.00
13080;BME280;6606;49.154;9.280;2023-12-28T04:19:11;99759.53;;;1.91;100.00
13080;BME280;6606;49.154;9.280;2023-12-28T04:21:52;99753.50;;;1.88;100.00
13080;BME280;6606;49.154;9.280;2023-12-28T04:24:36;99748.31;;;1.85;100.00
13080;BME280;6606;49.154;9.280;2023-12-28T04:27:18;99743.06;;;1.85;100.00
13080;BME280;6606;49.154;9.280;2023-12-28T04:30:00;99740.50;;;1.83;100.00
13080;BME280;6606;49.154;9.280;2023-12-28T04:32:42;99733.38;;;1.90;100.00
13080;BME280;6606;49.154;9.280;2023-12-28T04:35:25;99733.44;;;1.87;100.00
13080;BME280;6606;49.154;9.280;2023-12-28T04:38:08;99741.44;;;1.79;100.00
13080;BME280;6606;49.154;9.280;2023-12-28T04:40:50;99741.22;;;1.90;100.00
13080;BME280;6606;49.154;9.280;2023-12-28T04:43:32;99744.69;;;1.92;100.00
13080;BME280;6606;49.154;9.280;2023-12-28T04:46:14;99752.59;;;1.90;100.00
13080;BME280;6606;49.154;9.280;2023-12-28T04:48:55;99753.59;;;1.82;100.00
13080;BME280;6606;49.154;9.280;2023-12-28T04:51:43;99765.63;;;1.92;100.00
13080;BME280;6606;49.154;9.280;2023-12-28T04:54:25;99770.66;;;2.04;100.00
13080;BME280;6606;49.154;9.280;2023-12-28T04:57:08;99765.38;;;2.06;100.00
13080;BME280;6606;49.154;9.280;2023-12-28T04:59:50;99788.16;;;2.02;100.00
13080;BME280;6606;49.154;9.280;2023-12-28T05:02:32;99800.34;;;2.03;100.00
13080;BME280;6606;49.154;9.280;2023-12-28T05:05:15;99801.03;;;2.14;100.00
13080;BME280;6606;49.154;9.280;2023-12-28T05:07:58;99802.75;;;2.14;100.00
13080;BME280;6606;49.154;9.280;2023-12-28T05:10:40;99822.72;;;2.21;100.00
13080;BME280;6606;49.154;9.280;2023-12-28T05:13:22;99820.72;;;2.34;100.00
13080;BME280;6606;49.154;9.280;2023-12-28T05:16:04;99815.97;;;2.53;100.00
13080;BME280;6606;49.154;9.280;2023-12-28T05:18:45;99805.09;;;2.73;100.00
13080;BME280;6606;49.154;9.280;2023-12-28T05:21:27;99811.09;;;2.78;100.00
13080;BME280;6606;49.154;9.280;2023-12-28T05:24:11;99802.19;;;2.85;100.00
13080;BME280;6606;49.154;9.280;2023-12-28T05:26:52;99816.13;;;2.87;100.00
13080;BME280;6606;49.154;9.280;2023-12-28T05:29:34;99826.44;;;2.96;100.00
13080;BME280;6606;49.154;9.280;2023-12-28T05:32:16;99833.16;;;3.08;100.00
13080;BME280;6606;49.154;9.280;2023-12-28T05:34:57;99842.47;;;3.21;100.00
13080;BME280;6606;49.154;9.280;2023-12-28T05:37:39;99858.06;;;3.29;100.00
13080;BME280;6606;49.154;9.280;2023-12-28T05:40:22;99841.63;;;3.21;100.00
13080;BME280;6606;49.154;9.280;2023-12-28T05:43:04;99844.78;;;3.35;100.00
13080;BME280;6606;49.154;9.280;2023-12-28T05:45:45;99839.59;;;3.32;100.00
13080;BME280;6606;49.154;9.280;2023-12-28T05:48:27;99854.91;;;3.50;100.00
13080;BME280;6606;49.154;9.280;2023-12-28T05:51:09;99855.69;;;3.55;100.00
13080;BME280;6606;49.154;9.280;2023-12-28T05:53:50;99846.44;;;3.39;100.00
13080;BME280;6606;49.154;9.280;2023-12-28T05:56:34;99854.84;;;3.53;100.00
13080;BME280;6606;49.154;9.280;2023-12-28T05:59:16;99863.13;;;3.74;100.00
13080;BME280;6606;49.154;9.280;2023-12-28T06:01:58;99854.41;;;3.72;100.00
13080;BME280;6606;49.154;9.280;2023-12-28T06:04:39;99860.22;;;3.85;100.00
13080;BME280;6606;49.154;9.280;2023-12-28T06:07:21;99859.53;;;3.78;100.00
13080;BME280;6606;49.154;9.280;2023-12-28T06:10:04;99865.28;;;3.92;100.00
13080;BME280;6606;49.154;9.280;2023-12-28T06:12:47;99864.97;;;4.05;100.00
13080;BME280;6606;49.154;9.280;2023-12-28T06:15:31;99858.53;;;4.16;100.00
13080;BME280;6606;49.154;9.280;2023-12-28T06:18:13;99877.84;;;4.15;100.00
13080;BME280;6606;49.154;9.280;2023-12-28T06:20:54;99879.28;;;4.26;100.00
13080;BME280;6606;49.154;9.280;2023-12-28T06:23:36;99879.34;;;4.24;100.00
13080;BME280;6606;49.154;9.280;2023-12-28T06:26:18;99882.53;;;4.37;100.00
13080;BME280;6606;49.154;9.280;2023-12-28T06:29:01;99876.34;;;4.38;100.00
13080;BME280;6606;49.154;9.280;2023-12-28T06:31:42;99879.81;;;4.40;100.00
13080;BME280;6606;49.154;9.280;2023-12-28T06:34:24;99875.19;;;4.50;100.00
13080;BME280;6606;49.154;9.280;2023-12-28T06:37:07;99878.94;;;4.39;100.00
13080;BME280;6606;49.154;9.280;2023-12-28T06:39:49;99886.56;;;4.49;100.00
13080;BME280;6606;49.154;9.280;2023-12-28T06:42:30;99896.94;;;4.55;100.00
13080;BME280;6606;49.154;9.280;2023-12-28T06:45:14;99891.59;;;4.58;100.00
13080;BME280;6606;49.154;9.280;2023-12-28T06:47:56;99899.16;;;4.70;100.00
13080;BME280;6606;49.154;9.280;2023-12-28T06:50:37;99910.81;;;4.60;100.00
13080;BME280;6606;49.154;9.280;2023-12-28T06:53:19;99923.75;;;4.69;100.00
13080;BME280;6606;49.154;9.280;2023-12-28T06:56:01;99927.06;;;4.76;100.00
13080;BME280;6606;49.154;9.280;2023-12-28T06:58:43;99933.47;;;4.67;100.00
13080;BME280;6606;49.154;9.280;2023-12-28T07:01:26;99920.13;;;4.73;100.00
13080;BME280;6606;49.154;9.280;2023-12-28T07:04:08;99917.13;;;4.87;100.00
13080;BME280;6606;49.154;9.280;2023-12-28T07:06:50;99921.25;;;4.96;100.00
13080;BME280;6606;49.154;9.280;2023-12-28T07:09:31;99918.28;;;5.08;100.00
13080;BME280;6606;49.154;9.280;2023-12-28T07:12:13;99911.38;;;5.34;100.00
13080;BME280;6606;49.154;9.280;2023-12-28T07:14:55;99918.00;;;5.75;100.00
13080;BME280;6606;49.154;9.280;2023-12-28T07:17:38;99918.84;;;6.02;100.00
13080;BME280;6606;49.154;9.280;2023-12-28T07:20:20;99908.28;;;6.29;100.00
13080;BME280;6606;49.154;9.280;2023-12-28T07:23:02;99909.34;;;6.50;100.00
13080;BME280;6606;49.154;9.280;2023-12-28T07:25:44;99908.94;;;6.60;100.00
13080;BME280;6606;49.154;9.280;2023-12-28T07:28:26;99917.25;;;6.75;100.00
13080;BME280;6606;49.154;9.280;2023-12-28T07:31:07;99921.34;;;6.83;100.00
13080;BME280;6606;49.154;9.280;2023-12-28T07:33:51;99929.84;;;6.92;100.00
13080;BME280;6606;49.154;9.280;2023-12-28T07:36:32;99930.69;;;6.92;100.00
13080;BME280;6606;49.154;9.280;2023-12-28T07:39:14;99926.38;;;6.90;100.00
13080;BME280;6606;49.154;9.280;2023-12-28T07:41:56;99920.25;;;6.89;100.00
13080;BME280;6606;49.154;9.280;2023-12-28T07:44:38;99933.09;;;6.75;100.00
13080;BME280;6606;49.154;9.280;2023-12-28T07:47:19;99927.81;;;6.75;100.00
13080;BME280;6606;49.154;9.280;2023-12-28T07:50:04;99928.47;;;6.56;100.00
13080;BME280;6606;49.154;9.280;2023-12-28T07:52:46;99930.72;;;6.67;100.00
13080;BME280;6606;49.154;9.280;2023-12-28T07:55:27;99934.19;;;6.69;100.00
13080;BME280;6606;49.154;9.280;2023-12-28T07:58:09;99932.00;;;6.55;100.00
13080;BME280;6606;49.154;9.280;2023-12-28T08:00:51;99926.53;;;6.61;100.00
13080;BME280;6606;49.154;9.280;2023-12-28T08:03:33;99922.84;;;6.66;100.00
13080;BME280;6606;49.154;9.280;2023-12-28T08:06:16;99922.25;;;6.57;100.00
13080;BME280;6606;49.154;9.280;2023-12-28T08:08:58;99923.81;;;6.63;100.00
13080;BME280;6606;49.154;9.280;2023-12-28T08:11:40;99909.25;;;6.76;100.00
13080;BME280;6606;49.154;9.280;2023-12-28T08:14:22;99913.13;;;6.91;100.00
13080;BME280;6606;49.154;9.280;2023-12-28T08:17:04;99899.78;;;6.96;100.00
13080;BME280;6606;49.154;9.280;2023-12-28T08:19:46;99901.94;;;7.10;100.00
13080;BME280;6606;49.154;9.280;2023-12-28T08:22:29;99902.50;;;7.18;100.00
13080;BME280;6606;49.154;9.280;2023-12-28T08:25:11;99899.47;;;7.27;100.00
13080;BME280;6606;49.154;9.280;2023-12-28T08:27:53;99891.81;;;7.43;100.00
13080;BME280;6606;49.154;9.280;2023-12-28T08:30:35;99896.81;;;7.50;100.00
13080;BME280;6606;49.154;9.280;2023-12-28T08:33:16;99901.88;;;7.57;100.00
13080;BME280;6606;49.154;9.280;2023-12-28T08:36:02;99907.84;;;7.62;100.00
13080;BME280;6606;49.154;9.280;2023-12-28T08:38:46;99907.47;;;7.71;100.00
13080;BME280;6606;49.154;9.280;2023-12-28T08:41:32;99917.88;;;7.76;100.00
13080;BME280;6606;49.154;9.280;2023-12-28T08:44:14;99916.50;;;7.87;100.00
13080;BME280;6606;49.154;9.280;2023-12-28T08:46:56;99923.81;;;8.03;100.00
13080;BME280;6606;49.154;9.280;2023-12-28T08:49:38;99924.47;;;8.08;100.00
13080;BME280;6606;49.154;9.280;2023-12-28T08:52:19;99935.41;;;7.99;100.00
13080;BME280;6606;49.154;9.280;2023-12-28T08:55:04;99940.22;;;8.11;100.00
13080;BME280;6606;49.154;9.280;2023-12-28T08:57:46;99937.09;;;8.23;100.00
13080;BME280;6606;49.154;9.280;2023-12-28T09:00:28;99933.91;;;8.35;100.00
13080;BME280;6606;49.154;9.280;2023-12-28T09:03:10;99931.88;;;8.42;100.00
13080;BME280;6606;49.154;9.280;2023-12-28T09:05:51;99926.13;;;8.53;100.00
13080;BME280;6606;49.154;9.280;2023-12-28T09:08:33;99925.84;;;8.59;100.00
13080;BME280;6606;49.154;9.280;2023-12-28T09:11:17;99918.41;;;8.67;100.00
13080;BME280;6606;49.154;9.280;2023-12-28T09:13:59;99928.63;;;8.76;100.00
13080;BME280;6606;49.154;9.280;2023-12-28T09:16:41;99922.38;;;8.77;100.00
13080;BME280;6606;49.154;9.280;2023-12-28T09:19:24;99930.75;;;8.68;100.00
13080;BME280;6606;49.154;9.280;2023-12-28T09:22:06;99932.84;;;8.80;100.00
13080;BME280;6606;49.154;9.280;2023-12-28T09:24:47;99946.41;;;8.93;100.00
13080;BME280;6606;49.154;9.280;2023-12-28T09:27:31;99954.78;;;8.84;100.00
13080;BME280;6606;49.154;9.280;2023-12-28T09:30:13;99949.41;;;8.65;100.00
13080;BME280;6606;49.154;9.280;2023-12-28T09:32:55;99943.66;;;8.76;100.00
13080;BME280;6606;49.154;9.280;2023-12-28T09:35:37;99957.09;;;8.71;100.00
13080;BME280;6606;49.154;9.280;2023-12-28T09:38:19;99957.81;;;8.75;100.00
13080;BME280;6606;49.154;9.280;2023-12-28T09:41:09;99954.91;;;8.81;100.00
13080;BME280;6606;49.154;9.280;2023-12-28T09:43:54;99960.25;;;8.79;100.00
13080;BME280;6606;49.154;9.280;2023-12-28T09:46:41;99963.97;;;8.75;100.00
13080;BME280;6606;49.154;9.280;2023-12-28T09:49:22;99963.72;;;8.81;100.00
13080;BME280;6606;49.154;9.280;2023-12-28T09:52:05;99964.63;;;8.80;100.00
13080;BME280;6606;49.154;9.280;2023-12-28T09:54:47;99965.19;;;8.68;100.00
13080;BME280;6606;49.154;9.280;2023-12-28T09:57:29;99970.47;;;8.68;100.00
13080;BME280;6606;49.154;9.280;2023-12-28T10:00:13;99966.41;;;8.80;100.00
13080;BME280;6606;49.154;9.280;2023-12-28T10:02:54;99966.41;;;8.80;100.00
13080;BME280;6606;49.154;9.280;2023-12-28T10:05:36;99972.56;;;8.80;100.00
13080;BME280;6606;49.154;9.280;2023-12-28T10:08:18;99965.69;;;8.76;100.00
13080;BME280;6606;49.154;9.280;2023-12-28T10:11:00;99968.00;;;8.64;100.00
13080;BME280;6606;49.154;9.280;2023-12-28T10:13:42;99977.16;;;8.77;100.00
13080;BME280;6606;49.154;9.280;2023-12-28T10:16:26;99966.75;;;8.93;100.00
13080;BME280;6606;49.154;9.280;2023-12-28T10:19:08;99960.31;;;9.19;100.00
13080;BME280;6606;49.154;9.280;2023-12-28T10:21:50;99954.66;;;9.26;100.00
13080;BME280;6606;49.154;9.280;2023-12-28T10:24:32;99940.25;;;9.13;100.00
13080;BME280;6606;49.154;9.280;2023-12-28T10:27:14;99944.88;;;9.29;100.00
13080;BME280;6606;49.154;9.280;2023-12-28T10:29:56;99942.75;;;9.16;100.00
13080;BME280;6606;49.154;9.280;2023-12-28T10:32:41;99929.47;;;9.37;100.00
13080;BME280;6606;49.154;9.280;2023-12-28T10:35:22;99929.16;;;9.43;100.00
13080;BME280;6606;49.154;9.280;2023-12-28T10:38:06;99930.22;;;9.39;100.00
13080;BME280;6606;49.154;9.280;2023-12-28T10:40:49;99917.41;;;9.30;100.00
13080;BME280;6606;49.154;9.280;2023-12-28T10:43:37;99915.81;;;9.25;100.00
13080;BME280;6606;49.154;9.280;2023-12-28T10:46:26;99922.28;;;9.39;100.00
13080;BME280;6606;49.154;9.280;2023-12-28T10:49:12;99911.13;;;9.32;100.00
13080;BME280;6606;49.154;9.280;2023-12-28T10:51:54;99907.38;;;9.36;100.00
13080;BME280;6606;49.154;9.280;2023-12-28T10:54:41;99918.00;;;9.55;100.00
13080;BME280;6606;49.154;9.280;2023-12-28T10:57:29;99920.97;;;9.66;100.00
13080;BME280;6606;49.154;9.280;2023-12-28T11:00:13;99907.75;;;9.84;100.00
13080;BME280;6606;49.154;9.280;2023-12-28T11:03:02;99905.34;;;9.79;100.00
13080;BME280;6606;49.154;9.280;2023-12-28T11:05:46;99899.19;;;9.96;100.00
13080;BME280;6606;49.154;9.280;2023-12-28T11:08:29;99899.19;;;9.96;100.00
13080;BME280;6606;49.154;9.280;2023-12-28T11:11:13;99907.25;;;9.76;100.00
13080;BME280;6606;49.154;9.280;2023-12-28T11:13:56;99905.59;;;9.92;100.00
13080;BME280;6606;49.154;9.280;2023-12-28T11:16:41;99902.59;;;9.81;100.00
13080;BME280;6606;49.154;9.280;2023-12-28T11:19:23;99904.97;;;9.87;100.00
13080;BME280;6606;49.154;9.280;2023-12-28T11:22:06;99907.56;;;9.69;100.00
13080;BME280;6606;49.154;9.280;2023-12-28T11:24:49;99900.09;;;9.78;100.00
13080;BME280;6606;49.154;9.280;2023-12-28T11:27:34;99908.53;;;9.86;100.00
13080;BME280;6606;49.154;9.280;2023-12-28T11:30:16;99898.50;;;9.92;100.00
13080;BME280;6606;49.154;9.280;2023-12-28T11:32:59;99883.28;;;10.31;100.00
13080;BME280;6606;49.154;9.280;2023-12-28T11:35:41;99885.03;;;10.32;100.00
13080;BME280;6606;49.154;9.280;2023-12-28T11:38:25;99889.72;;;10.27;100.00
13080;BME280;6606;49.154;9.280;2023-12-28T11:41:07;99893.28;;;10.43;100.00
13080;BME280;6606;49.154;9.280;2023-12-28T11:43:52;99887.59;;;10.51;100.00
13080;BME280;6606;49.154;9.280;2023-12-28T11:46:35;99891.97;;;10.34;100.00
13080;BME280;6606;49.154;9.280;2023-12-28T11:49:25;99885.59;;;10.56;100.00
13080;BME280;6606;49.154;9.280;2023-12-28T11:52:08;99887.28;;;10.40;100.00
13080;BME280;6606;49.154;9.280;2023-12-28T11:54:53;99885.16;;;10.29;100.00
13080;BME280;6606;49.154;9.280;2023-12-28T11:57:36;99893.19;;;10.45;100.00
13080;BME280;6606;49.154;9.280;2023-12-28T12:00:19;99886.13;;;10.45;100.00
13080;BME280;6606;49.154;9.280;2023-12-28T12:03:02;99892.81;;;10.52;100.00
13080;BME280;6606;49.154;9.280;2023-12-28T12:05:43;99882.53;;;10.64;100.00
13080;BME280;6606;49.154;9.280;2023-12-28T12:08:25;99878.34;;;10.75;100.00
13080;BME280;6606;49.154;9.280;2023-12-28T12:11:09;99879.47;;;10.71;100.00
13080;BME280;6606;49.154;9.280;2023-12-28T12:13:51;99865.09;;;10.58;100.00
13080;BME280;6606;49.154;9.280;2023-12-28T12:16:34;99873.00;;;10.25;100.00
13080;BME280;6606;49.154;9.280;2023-12-28T12:19:17;99869.41;;;10.43;100.00
13080;BME280;6606;49.154;9.280;2023-12-28T12:21:59;99866.28;;;10.35;100.00
13080;BME280;6606;49.154;9.280;2023-12-28T12:24:41;99863.00;;;10.30;100.00
13080;BME280;6606;49.154;9.280;2023-12-28T12:27:26;99864.88;;;10.28;100.00
13080;BME280;6606;49.154;9.280;2023-12-28T12:30:08;99860.31;;;10.47;100.00
13080;BME280;6606;49.154;9.280;2023-12-28T12:32:50;99849.56;;;10.50;100.00
13080;BME280;6606;49.154;9.280;2023-12-28T12:35:32;99836.28;;;10.50;100.00
13080;BME280;6606;49.154;9.280;2023-12-28T12:38:15;99838.09;;;10.32;100.00
13080;BME280;6606;49.154;9.280;2023-12-28T12:40:57;99845.28;;;10.30;100.00
13080;BME280;6606;49.154;9.280;2023-12-28T12:43:41;99845.22;;;10.32;100.00
13080;BME280;6606;49.154;9.280;2023-12-28T12:46:23;99841.84;;;10.11;100.00
13080;BME280;6606;49.154;9.280;2023-12-28T12:49:05;99839.28;;;10.09;100.00
13080;BME280;6606;49.154;9.280;2023-12-28T12:51:48;99841.06;;;9.91;100.00
13080;BME280;6606;49.154;9.280;2023-12-28T12:54:31;99843.13;;;9.67;100.00
13080;BME280;6606;49.154;9.280;2023-12-28T12:57:13;99846.41;;;9.73;100.00
13080;BME280;6606;49.154;9.280;2023-12-28T12:59:56;99862.34;;;9.73;100.00
13080;BME280;6606;49.154;9.280;2023-12-28T13:02:38;99853.75;;;9.67;100.00
13080;BME280;6606;49.154;9.280;2023-12-28T13:05:19;99845.34;;;9.77;100.00
13080;BME280;6606;49.154;9.280;2023-12-28T13:08:01;99853.75;;;9.67;100.00
13080;BME280;6606;49.154;9.280;2023-12-28T13:10:43;99839.25;;;9.75;100.00
13080;BME280;6606;49.154;9.280;2023-12-28T13:13:25;99844.13;;;9.65;100.00
13080;BME280;6606;49.154;9.280;2023-12-28T13:16:08;99833.00;;;9.76;100.00
13080;BME280;6606;49.154;9.280;2023-12-28T13:18:50;99832.53;;;9.67;100.00
13080;BME280;6606;49.154;9.280;2023-12-28T13:21:31;99829.22;;;9.62;100.00
13080;BME280;6606;49.154;9.280;2023-12-28T13:24:13;99834.69;;;9.59;100.00
13080;BME280;6606;49.154;9.280;2023-12-28T13:26:55;99832.41;;;9.52;100.00
13080;BME280;6606;49.154;9.280;2023-12-28T13:29:37;99836.44;;;9.60;100.00
13080;BME280;6606;49.154;9.280;2023-12-28T13:32:27;99837.13;;;9.64;100.00
13080;BME280;6606;49.154;9.280;2023-12-28T13:35:10;99843.75;;;9.55;100.00
13080;BME280;6606;49.154;9.280;2023-12-28T13:37:52;99842.47;;;9.45;100.00
13080;BME280;6606;49.154;9.280;2023-12-28T13:40:33;99845.66;;;9.52;100.00
13080;BME280;6606;49.154;9.280;2023-12-28T13:43:19;99840.81;;;9.42;100.00
13080;BME280;6606;49.154;9.280;2023-12-28T13:46:01;99836.81;;;9.34;100.00
13080;BME280;6606;49.154;9.280;2023-12-28T13:48:45;99843.34;;;9.26;100.00
13080;BME280;6606;49.154;9.280;2023-12-28T13:51:27;99842.63;;;9.42;100.00
13080;BME280;6606;49.154;9.280;2023-12-28T13:54:09;99837.59;;;9.36;100.00
13080;BME280;6606;49.154;9.280;2023-12-28T13:56:50;99834.31;;;9.31;100.00
13080;BME280;6606;49.154;9.280;2023-12-28T13:59:37;99836.41;;;9.24;100.00
13080;BME280;6606;49.154;9.280;2023-12-28T14:02:18;99832.25;;;9.18;100.00
13080;BME280;6606;49.154;9.280;2023-12-28T14:05:03;99832.41;;;9.15;100.00
13080;BME280;6606;49.154;9.280;2023-12-28T14:07:45;99827.59;;;9.23;100.00
13080;BME280;6606;49.154;9.280;2023-12-28T14:10:27;99813.97;;;9.12;100.00
13080;BME280;6606;49.154;9.280;2023-12-28T14:13:09;99828.97;;;9.13;100.00
13080;BME280;6606;49.154;9.280;2023-12-28T14:15:51;99826.00;;;9.19;100.00
13080;BME280;6606;49.154;9.280;2023-12-28T14:18:32;99831.69;;;9.12;100.00
13080;BME280;6606;49.154;9.280;2023-12-28T14:21:16;99826.00;;;9.19;100.00
13080;BME280;6606;49.154;9.280;2023-12-28T14:23:58;99841.56;;;9.27;100.00
13080;BME280;6606;49.154;9.280;2023-12-28T14:26:41;99825.16;;;9.19;100.00
13080;BME280;6606;49.154;9.280;2023-12-28T14:29:24;99833.13;;;9.19;100.00
13080;BME280;6606;49.154;9.280;2023-12-28T14:32:08;99831.63;;;9.13;100.00